createdAt,value
2017-09-26T00:01:02.230Z,17.68
2017-09-26T00:03:28.468Z,17.63
2017-09-26T00:05:54.705Z,17.61
2017-09-26T00:08:20.925Z,17.55
2017-09-26T00:10:47.160Z,17.51
2017-09-26T00:13:13.395Z,17.56
2017-09-26T00:15:39.609Z,17.68
2017-09-26T00:18:05.758Z,17.78
2017-09-26T00:20:31.976Z,17.84
2017-09-26T00:22:58.209Z,17.89
2017-09-26T00:25:24.440Z,17.93
2017-09-26T00:27:50.660Z,18.00
2017-09-26T00:30:16.893Z,17.79
2017-09-26T00:32:43.133Z,17.59
2017-09-26T00:35:09.348Z,17.60
2017-09-26T00:37:35.580Z,17.58
2017-09-26T00:40:01.860Z,17.62
2017-09-26T00:42:28.040Z,17.64
2017-09-26T00:44:54.271Z,17.50
2017-09-26T00:47:20.503Z,17.57
2017-09-26T00:49:46.734Z,17.58
2017-09-26T00:52:12.960Z,17.58
2017-09-26T00:54:39.203Z,17.62
2017-09-26T00:57:05.437Z,17.61
2017-09-26T00:59:31.646Z,17.68
2017-09-26T01:01:57.884Z,17.70
2017-09-26T01:04:24.098Z,17.78
2017-09-26T01:06:50.324Z,17.76
2017-09-26T01:09:16.597Z,17.71
2017-09-26T01:11:42.791Z,17.75
2017-09-26T01:14:09.030Z,17.76
2017-09-26T01:16:35.275Z,17.78
2017-09-26T01:19:01.469Z,17.82
2017-09-26T01:21:27.633Z,17.86
2017-09-26T01:23:53.856Z,17.89
2017-09-26T01:26:20.070Z,17.73
2017-09-26T01:28:46.295Z,17.73
2017-09-26T01:31:12.536Z,17.60
2017-09-26T01:33:38.768Z,17.61
2017-09-26T01:36:04.999Z,17.61
2017-09-26T01:38:31.229Z,17.55
2017-09-26T01:40:57.457Z,17.52
2017-09-26T01:43:23.686Z,17.56
2017-09-26T01:45:49.917Z,17.58
2017-09-26T01:48:16.141Z,17.55
2017-09-26T01:50:42.366Z,17.55
2017-09-26T01:53:08.585Z,17.42
2017-09-26T01:55:34.840Z,17.31
2017-09-26T01:58:01.065Z,17.31
2017-09-26T02:00:27.288Z,17.35
2017-09-26T02:02:53.530Z,17.39
2017-09-26T02:05:19.766Z,17.36
2017-09-26T02:07:45.990Z,17.25
2017-09-26T02:10:12.212Z,17.25
2017-09-26T02:12:38.427Z,17.25
2017-09-26T02:15:04.673Z,17.27
2017-09-26T02:17:30.900Z,17.27
2017-09-26T02:19:57.126Z,17.24
2017-09-26T02:22:23.355Z,17.16
2017-09-26T02:24:49.591Z,17.22
2017-09-26T02:27:15.831Z,17.18
2017-09-26T02:29:42.066Z,17.19
2017-09-26T02:32:08.281Z,17.13
2017-09-26T02:34:34.503Z,17.20
2017-09-26T02:37:00.731Z,17.19
2017-09-26T02:39:26.975Z,17.17
2017-09-26T02:41:53.192Z,17.09
2017-09-26T02:44:19.434Z,17.06
2017-09-26T02:46:45.671Z,17.05
2017-09-26T02:49:11.894Z,17.00
2017-09-26T02:51:38.534Z,16.99
2017-09-26T02:54:04.759Z,17.03
2017-09-26T02:56:30.972Z,17.03
2017-09-26T02:58:57.201Z,16.96
2017-09-26T03:01:23.443Z,16.94
2017-09-26T03:03:49.687Z,16.95
2017-09-26T03:06:15.829Z,16.95
2017-09-26T03:08:42.023Z,16.96
2017-09-26T03:11:08.260Z,16.95
2017-09-26T03:13:34.497Z,16.98
2017-09-26T03:16:00.724Z,16.93
2017-09-26T03:18:26.951Z,16.82
2017-09-26T03:20:53.189Z,16.66
2017-09-26T03:23:19.420Z,16.76
2017-09-26T03:25:45.604Z,16.73
2017-09-26T03:28:11.861Z,16.73
2017-09-26T03:30:38.092Z,16.72
2017-09-26T03:33:04.328Z,16.71
2017-09-26T03:35:30.563Z,16.69
2017-09-26T03:37:56.811Z,16.57
2017-09-26T03:40:23.022Z,16.60
2017-09-26T03:42:49.251Z,16.63
2017-09-26T03:45:15.483Z,16.61
2017-09-26T03:47:41.701Z,16.69
2017-09-26T03:50:07.932Z,16.70
2017-09-26T03:52:34.078Z,16.70
2017-09-26T03:55:00.293Z,16.69
2017-09-26T03:57:26.520Z,16.65
2017-09-26T03:59:52.762Z,16.65
2017-09-26T04:02:18.989Z,16.61
2017-09-26T04:04:45.201Z,16.67
2017-09-26T04:07:11.467Z,16.71
2017-09-26T04:09:37.675Z,16.68
2017-09-26T04:12:03.902Z,16.75
2017-09-26T04:14:30.128Z,16.74
2017-09-26T04:16:56.355Z,16.73
2017-09-26T04:19:22.581Z,16.86
2017-09-26T04:21:48.824Z,16.93
2017-09-26T04:24:15.045Z,16.96
2017-09-26T04:26:41.279Z,16.94
2017-09-26T04:29:07.512Z,17.06
2017-09-26T04:31:33.745Z,16.93
2017-09-26T04:33:59.912Z,17.02
2017-09-26T04:36:26.098Z,17.05
2017-09-26T04:38:52.331Z,17.05
2017-09-26T04:41:18.566Z,17.03
2017-09-26T04:43:44.769Z,17.09
2017-09-26T04:46:11.021Z,17.19
2017-09-26T04:48:37.229Z,17.27
2017-09-26T04:51:03.479Z,17.28
2017-09-26T04:53:29.703Z,17.31
2017-09-26T04:55:55.940Z,17.33
2017-09-26T04:58:22.159Z,17.29
2017-09-26T05:00:48.390Z,17.29
2017-09-26T05:03:14.614Z,17.24
2017-09-26T05:05:40.793Z,17.24
2017-09-26T05:08:07.004Z,17.24
2017-09-26T05:10:33.202Z,17.27
2017-09-26T05:12:59.358Z,17.26
2017-09-26T05:15:25.554Z,17.30
2017-09-26T05:17:51.793Z,17.23
2017-09-26T05:20:18.050Z,17.24
2017-09-26T05:22:44.254Z,17.31
2017-09-26T05:25:10.490Z,17.36
2017-09-26T05:27:36.722Z,17.32
2017-09-26T05:30:02.950Z,17.34
2017-09-26T05:32:29.182Z,17.38
2017-09-26T05:34:55.432Z,17.42
2017-09-26T05:37:21.634Z,17.41
2017-09-26T05:39:47.864Z,17.48
2017-09-26T05:42:14.088Z,17.50
2017-09-26T05:44:40.324Z,17.52
2017-09-26T05:47:06.538Z,17.53
2017-09-26T05:49:32.787Z,17.54
2017-09-26T05:51:58.994Z,17.66
2017-09-26T05:54:25.229Z,17.74
2017-09-26T05:56:51.471Z,17.76
2017-09-26T05:59:17.729Z,17.87
2017-09-26T06:01:43.945Z,17.88
2017-09-26T06:04:10.155Z,17.80
2017-09-26T06:06:36.372Z,17.79
2017-09-26T06:09:02.618Z,17.82
2017-09-26T06:11:28.843Z,17.92
2017-09-26T06:13:55.072Z,17.94
2017-09-26T06:16:21.308Z,17.98
2017-09-26T06:18:47.531Z,18.04
2017-09-26T06:21:13.755Z,18.08
2017-09-26T06:23:39.992Z,18.02
2017-09-26T06:26:06.222Z,18.12
2017-09-26T06:28:32.481Z,18.21
2017-09-26T06:30:58.717Z,18.34
2017-09-26T06:33:24.919Z,18.46
2017-09-26T06:35:51.139Z,18.45
2017-09-26T06:38:17.385Z,18.32
2017-09-26T06:40:43.538Z,18.32
2017-09-26T06:43:09.749Z,18.23
2017-09-26T06:45:36.033Z,18.14
2017-09-26T06:48:02.302Z,17.99
2017-09-26T06:50:28.519Z,17.93
2017-09-26T06:52:54.746Z,17.92
2017-09-26T06:55:20.984Z,17.93
2017-09-26T06:57:47.218Z,17.99
2017-09-26T07:00:13.452Z,18.13
2017-09-26T07:02:39.676Z,18.13
2017-09-26T07:05:05.904Z,18.06
2017-09-26T07:07:32.159Z,18.12
2017-09-26T07:09:58.357Z,18.19
2017-09-26T07:12:24.622Z,18.32
2017-09-26T07:14:50.841Z,18.40
2017-09-26T07:17:17.042Z,18.38
2017-09-26T07:19:43.279Z,18.38
2017-09-26T07:22:09.533Z,18.25
2017-09-26T07:24:35.736Z,18.28
2017-09-26T07:27:01.964Z,18.31
2017-09-26T07:29:28.205Z,18.30
2017-09-26T07:31:54.434Z,18.35
2017-09-26T07:34:20.641Z,18.41
2017-09-26T07:36:46.908Z,18.43
2017-09-26T07:39:13.129Z,18.44
2017-09-26T07:41:39.340Z,18.42
2017-09-26T07:44:05.571Z,18.46
2017-09-26T07:46:31.820Z,18.59
2017-09-26T07:48:58.030Z,18.67
2017-09-26T07:51:24.279Z,18.71
2017-09-26T07:53:50.490Z,18.79
2017-09-26T07:56:16.735Z,18.80
2017-09-26T07:58:42.963Z,18.88
2017-09-26T08:01:09.174Z,18.98
2017-09-26T08:03:35.316Z,19.32
2017-09-26T08:06:01.560Z,19.36
2017-09-26T08:08:27.771Z,19.51
2017-09-26T08:10:53.998Z,20.05
2017-09-26T08:13:20.244Z,20.36
2017-09-26T08:15:46.387Z,20.74
2017-09-26T08:18:12.584Z,21.01
2017-09-26T08:20:38.839Z,21.03
2017-09-26T08:23:05.041Z,21.02
2017-09-26T08:25:31.292Z,20.87
2017-09-26T08:27:57.504Z,21.21
2017-09-26T08:30:23.655Z,21.15
2017-09-26T08:32:49.867Z,21.21
2017-09-26T08:35:16.086Z,21.16
2017-09-26T08:37:42.309Z,21.16
2017-09-26T08:40:08.559Z,21.44
2017-09-26T08:42:34.785Z,21.84
2017-09-26T08:45:01.023Z,22.42
2017-09-26T08:47:27.179Z,22.65
2017-09-26T08:49:53.350Z,22.78
2017-09-26T08:52:19.529Z,22.28
2017-09-26T08:54:45.695Z,22.45
2017-09-26T08:57:11.870Z,22.61
2017-09-26T08:59:38.030Z,23.09
2017-09-26T09:02:04.182Z,23.34
2017-09-26T09:04:30.334Z,22.87
2017-09-26T09:06:56.510Z,22.80
2017-09-26T09:09:22.668Z,23.08
2017-09-26T09:11:48.814Z,22.88
2017-09-26T09:14:14.970Z,22.69
2017-09-26T09:16:41.128Z,22.68
2017-09-26T09:19:07.292Z,22.40
2017-09-26T09:21:33.460Z,22.33
2017-09-26T09:23:59.654Z,21.92
2017-09-26T09:26:25.913Z,21.61
2017-09-26T09:28:52.113Z,21.41
2017-09-26T09:31:18.367Z,21.12
2017-09-26T09:33:44.579Z,21.03
2017-09-26T09:36:10.810Z,21.10
2017-09-26T09:38:37.055Z,21.24
2017-09-26T09:41:03.269Z,21.41
2017-09-26T09:43:29.513Z,21.69
2017-09-26T09:45:55.757Z,21.90
2017-09-26T09:48:21.956Z,21.79
2017-09-26T09:50:48.197Z,21.78
2017-09-26T09:53:14.433Z,21.89
2017-09-26T09:55:40.659Z,21.75
2017-09-26T09:58:06.885Z,21.95
2017-09-26T10:00:33.108Z,22.12
2017-09-26T10:02:59.343Z,21.96
2017-09-26T10:05:25.560Z,21.98
2017-09-26T10:07:51.827Z,21.92
2017-09-26T10:10:18.039Z,21.58
2017-09-26T10:12:44.269Z,21.66
2017-09-26T10:15:10.475Z,21.42
2017-09-26T10:17:36.724Z,21.69
2017-09-26T10:20:02.968Z,21.77
2017-09-26T10:22:29.182Z,21.99
2017-09-26T10:24:55.404Z,21.90
2017-09-26T10:27:21.651Z,22.10
2017-09-26T10:29:47.879Z,22.31
2017-09-26T10:32:14.105Z,22.00
2017-09-26T10:34:40.335Z,22.19
2017-09-26T10:37:06.593Z,22.25
2017-09-26T10:39:32.814Z,22.22
2017-09-26T10:41:59.024Z,22.26
2017-09-26T10:44:25.243Z,22.49
2017-09-26T10:46:51.521Z,22.73
2017-09-26T10:49:17.696Z,23.08
2017-09-26T10:51:43.930Z,23.62
2017-09-26T10:54:10.172Z,23.40
2017-09-26T10:56:36.378Z,23.64
2017-09-26T10:59:02.630Z,23.74
2017-09-26T11:01:28.861Z,23.74
2017-09-26T11:03:55.096Z,23.19
2017-09-26T11:06:21.347Z,23.25
2017-09-26T11:08:47.536Z,23.41
2017-09-26T11:11:13.777Z,22.97
2017-09-26T11:13:40.013Z,22.51
2017-09-26T11:16:06.235Z,22.27
2017-09-26T11:18:32.478Z,22.22
2017-09-26T11:20:58.711Z,22.29
2017-09-26T11:23:24.934Z,22.12
2017-09-26T11:25:51.143Z,22.22
2017-09-26T11:28:17.394Z,22.31
2017-09-26T11:30:43.593Z,22.38
2017-09-26T11:33:09.849Z,22.27
2017-09-26T11:35:36.089Z,22.27
2017-09-26T11:38:02.298Z,22.07
2017-09-26T11:40:28.545Z,21.94
2017-09-26T11:42:55.268Z,22.26
2017-09-26T11:58:21.513Z,22.06
2017-09-26T12:00:47.747Z,22.11
2017-09-26T12:03:13.958Z,22.06
2017-09-26T12:05:40.186Z,21.88
2017-09-26T12:08:06.428Z,21.73
2017-09-26T12:10:32.646Z,21.56
2017-09-26T12:12:58.879Z,21.42
2017-09-26T12:15:25.107Z,21.26
2017-09-26T12:17:51.327Z,21.27
2017-09-26T12:20:17.595Z,21.23
2017-09-26T12:22:43.785Z,21.07
2017-09-26T12:25:10.021Z,21.02
2017-09-26T12:27:36.276Z,20.91
2017-09-26T12:30:02.475Z,20.72
2017-09-26T12:32:28.704Z,20.62
2017-09-26T12:34:54.964Z,20.53
2017-09-26T12:37:21.168Z,20.38
2017-09-26T12:39:47.404Z,20.33
2017-09-26T12:42:13.623Z,20.24
2017-09-26T12:44:39.888Z,20.06
2017-09-26T12:47:06.097Z,20.12
2017-09-26T12:49:32.335Z,19.67
2017-09-26T12:51:58.576Z,19.38
2017-09-26T12:54:24.782Z,19.20
2017-09-26T12:56:50.966Z,19.06
2017-09-26T12:59:17.224Z,18.75
2017-09-26T13:01:43.485Z,18.59
2017-09-26T13:04:09.678Z,18.52
2017-09-26T13:06:35.942Z,18.33
2017-09-26T13:09:02.312Z,18.45
2017-09-26T13:11:28.532Z,18.49
2017-09-26T13:13:54.718Z,18.40
2017-09-26T13:16:21.970Z,18.37
2017-09-26T13:18:48.265Z,18.21
2017-09-26T13:21:14.608Z,18.33
2017-09-26T13:23:40.895Z,18.25
2017-09-26T13:26:07.138Z,18.19
2017-09-26T13:28:33.361Z,18.13
2017-09-26T13:30:59.622Z,18.23
2017-09-26T13:33:25.920Z,18.24
2017-09-26T13:35:52.133Z,18.22
2017-09-26T13:38:18.376Z,18.20
2017-09-26T13:40:44.584Z,18.27
2017-09-26T13:43:10.816Z,18.31
2017-09-26T13:45:37.102Z,18.22
2017-09-26T13:48:03.394Z,18.35
2017-09-26T13:50:29.599Z,18.45
2017-09-26T13:52:55.830Z,18.47
2017-09-26T13:55:22.010Z,18.58
2017-09-26T13:57:48.200Z,18.57
2017-09-26T14:00:14.454Z,18.52
2017-09-26T14:02:41.190Z,18.54
2017-09-26T14:05:07.419Z,18.45
2017-09-26T14:07:33.632Z,18.43
2017-09-26T14:09:59.871Z,18.52
2017-09-26T14:12:26.083Z,18.61
2017-09-26T14:14:52.314Z,18.65
2017-09-26T14:17:18.587Z,18.73
2017-09-26T14:19:44.764Z,18.80
2017-09-26T14:22:10.997Z,18.81
2017-09-26T14:24:37.223Z,18.77
2017-09-26T14:27:03.462Z,18.80
2017-09-26T14:29:29.682Z,18.82
2017-09-26T14:31:55.935Z,18.90
2017-09-26T14:34:22.159Z,18.95
2017-09-26T14:36:48.384Z,18.91
2017-09-26T14:39:14.615Z,18.88
2017-09-26T14:41:40.842Z,18.93
2017-09-26T14:44:07.099Z,18.99
2017-09-26T14:46:33.317Z,18.98
2017-09-26T14:48:59.569Z,19.04
2017-09-26T14:51:25.789Z,18.92
2017-09-26T14:53:52.018Z,18.95
2017-09-26T14:56:18.244Z,18.88
2017-09-26T14:58:44.462Z,18.94
2017-09-26T15:01:10.692Z,18.86
2017-09-26T15:03:36.913Z,18.76
2017-09-26T15:06:03.141Z,18.78
2017-09-26T15:08:29.400Z,18.75
2017-09-26T15:10:55.570Z,18.68
2017-09-26T15:13:21.824Z,18.63
2017-09-26T15:15:48.033Z,18.70
2017-09-26T15:18:14.291Z,18.57
2017-09-26T15:20:40.560Z,18.50
2017-09-26T15:23:06.749Z,18.56
2017-09-26T15:25:32.982Z,18.51
2017-09-26T15:27:59.203Z,18.51
2017-09-26T15:30:25.435Z,18.53
2017-09-26T15:32:51.609Z,18.58
2017-09-26T15:35:17.796Z,18.56
2017-09-26T15:37:44.038Z,18.56
2017-09-26T15:40:10.295Z,18.53
2017-09-26T15:42:36.477Z,18.53
2017-09-26T15:45:02.721Z,18.54
2017-09-26T15:47:28.949Z,18.33
2017-09-26T15:49:55.189Z,18.32
2017-09-26T15:52:21.397Z,18.26
2017-09-26T15:54:47.641Z,18.17
2017-09-26T15:57:13.871Z,18.15
2017-09-26T15:59:40.085Z,18.08
2017-09-26T16:02:06.332Z,18.00
2017-09-26T16:04:32.553Z,18.01
2017-09-26T16:06:58.790Z,18.07
2017-09-26T16:09:25.041Z,17.98
2017-09-26T16:11:51.252Z,17.92
2017-09-26T16:14:17.486Z,17.90
2017-09-26T16:16:43.701Z,17.85
2017-09-26T16:19:09.946Z,17.82
2017-09-26T16:21:36.158Z,17.86
2017-09-26T16:24:02.398Z,17.81
2017-09-26T16:26:28.622Z,17.80
2017-09-26T16:28:54.854Z,17.78
2017-09-26T16:31:21.084Z,17.86
2017-09-26T16:33:47.314Z,17.78
2017-09-26T16:36:13.556Z,17.76
2017-09-26T16:38:39.764Z,17.75
2017-09-26T16:41:06.002Z,17.73
2017-09-26T16:43:32.237Z,17.78
2017-09-26T16:45:58.481Z,17.73
2017-09-26T16:48:24.690Z,17.81
2017-09-26T16:50:50.909Z,17.81
2017-09-26T16:53:17.155Z,17.80
2017-09-26T16:55:43.378Z,17.85
2017-09-26T16:58:09.604Z,17.78
2017-09-26T17:00:35.839Z,17.73
2017-09-26T17:03:02.081Z,17.76
2017-09-26T17:05:28.294Z,17.70
2017-09-26T17:07:54.516Z,17.74
2017-09-26T17:10:20.763Z,17.71
2017-09-26T17:12:46.980Z,17.65
2017-09-26T17:15:13.201Z,17.73
2017-09-26T17:17:39.432Z,17.74
2017-09-26T17:20:05.674Z,17.75
2017-09-26T17:22:31.899Z,17.69
2017-09-26T17:24:58.139Z,17.78
2017-09-26T17:27:24.351Z,17.75
2017-09-26T17:29:50.590Z,17.74
2017-09-26T17:32:16.804Z,17.77
2017-09-26T17:34:43.034Z,17.73
2017-09-26T17:37:09.317Z,17.77
2017-09-26T17:39:35.498Z,17.76
2017-09-26T17:42:01.731Z,17.80
2017-09-26T17:44:27.891Z,17.79
2017-09-26T17:46:54.091Z,17.80
2017-09-26T17:49:20.320Z,17.77
2017-09-26T17:51:46.551Z,17.66
2017-09-26T17:54:12.774Z,17.56
2017-09-26T17:56:39.013Z,17.54
2017-09-26T17:59:05.240Z,17.55
2017-09-26T18:01:31.462Z,17.53
2017-09-26T18:03:57.693Z,17.48
2017-09-26T18:06:23.939Z,17.43
2017-09-26T18:08:50.177Z,17.36
2017-09-26T18:11:16.394Z,17.29
2017-09-26T18:13:42.625Z,17.23
2017-09-26T18:16:08.842Z,17.19
2017-09-26T18:18:35.080Z,17.11
2017-09-26T18:21:01.320Z,17.14
2017-09-26T18:23:27.537Z,17.11
2017-09-26T18:25:53.782Z,17.06
2017-09-26T18:28:19.986Z,17.16
2017-09-26T18:30:46.213Z,17.08
2017-09-26T18:33:12.380Z,17.04
2017-09-26T18:35:38.578Z,17.03
2017-09-26T18:38:04.812Z,17.06
2017-09-26T18:40:31.027Z,16.99
2017-09-26T18:42:57.286Z,17.02
2017-09-26T18:45:23.506Z,17.05
2017-09-26T18:47:49.722Z,17.01
2017-09-26T18:50:15.982Z,16.95
2017-09-26T18:52:42.200Z,16.96
2017-09-26T18:55:08.428Z,16.93
2017-09-26T18:57:34.631Z,16.94
2017-09-26T19:00:00.887Z,16.89
2017-09-26T19:02:27.105Z,16.92
2017-09-26T19:04:53.340Z,16.90
2017-09-26T19:07:19.568Z,16.86
2017-09-26T19:09:45.801Z,16.84
2017-09-26T19:12:12.026Z,16.72
2017-09-26T19:14:38.256Z,16.76
2017-09-26T19:17:04.487Z,16.72
2017-09-26T19:19:30.706Z,16.70
2017-09-26T19:21:56.955Z,16.64
2017-09-26T19:24:23.156Z,16.66
2017-09-26T19:26:49.399Z,16.68
2017-09-26T19:29:16.635Z,16.69
2017-09-26T19:31:42.888Z,16.74
2017-09-26T19:34:09.102Z,16.70
2017-09-26T19:36:35.339Z,16.55
2017-09-26T19:39:01.562Z,16.57
2017-09-26T19:41:27.791Z,16.63
2017-09-26T19:43:54.044Z,16.51
2017-09-26T19:46:20.294Z,16.56
2017-09-26T19:48:46.484Z,16.55
2017-09-26T19:51:12.656Z,16.52
2017-09-26T19:53:38.845Z,16.55
2017-09-26T19:56:05.093Z,16.46
2017-09-26T19:58:31.256Z,16.39
2017-09-26T20:00:57.431Z,16.42
2017-09-26T20:03:23.679Z,16.44
2017-09-26T20:05:49.883Z,16.38
2017-09-26T20:08:16.049Z,16.36
2017-09-26T20:10:42.264Z,16.34
2017-09-26T20:13:08.486Z,16.39
2017-09-26T20:15:34.713Z,16.35
2017-09-26T20:18:00.953Z,16.36
2017-09-26T20:20:27.179Z,16.32
2017-09-26T20:22:53.402Z,16.37
2017-09-26T20:25:19.644Z,16.34
2017-09-26T20:27:45.871Z,16.29
2017-09-26T20:30:12.104Z,16.36
2017-09-26T20:32:38.311Z,16.32
2017-09-26T20:35:04.562Z,16.37
2017-09-26T20:37:30.784Z,16.30
2017-09-26T20:39:56.931Z,16.29
2017-09-26T20:42:23.126Z,16.34
2017-09-26T20:44:49.371Z,16.27
2017-09-26T20:47:15.602Z,16.21
2017-09-26T20:49:41.834Z,16.24
2017-09-26T20:52:08.050Z,16.16
2017-09-26T20:54:34.213Z,16.24
2017-09-26T20:57:00.422Z,16.16
2017-09-26T20:59:26.639Z,16.09
2017-09-26T21:01:52.868Z,16.11
2017-09-26T21:04:19.114Z,16.10
2017-09-26T21:06:45.326Z,16.09
2017-09-26T21:09:11.562Z,16.08
2017-09-26T21:11:37.783Z,16.04
2017-09-26T21:14:04.054Z,16.00
2017-09-26T21:16:30.265Z,15.96
2017-09-26T21:18:56.513Z,15.90
2017-09-26T21:21:22.716Z,15.92
2017-09-26T21:23:48.931Z,15.88
2017-09-26T21:26:15.180Z,15.92
2017-09-26T21:28:41.386Z,15.89
2017-09-26T21:31:07.623Z,15.90
2017-09-26T21:33:33.851Z,15.93
2017-09-26T21:36:00.098Z,15.88
2017-09-26T21:38:26.336Z,15.92
2017-09-26T21:40:52.543Z,15.89
2017-09-26T21:43:18.792Z,15.87
2017-09-26T21:45:45.036Z,15.86
2017-09-26T21:48:11.272Z,15.86
2017-09-26T21:50:37.468Z,15.85
2017-09-26T21:53:03.694Z,15.84
2017-09-26T21:55:29.932Z,15.78
2017-09-26T21:57:56.178Z,15.84
2017-09-26T22:00:22.399Z,15.78
2017-09-26T22:02:48.617Z,15.73
2017-09-26T22:05:14.882Z,15.66
2017-09-26T22:07:41.090Z,15.67
2017-09-26T22:10:07.312Z,15.65
2017-09-26T22:12:33.552Z,15.72
2017-09-26T22:14:59.780Z,15.70
2017-09-26T22:17:25.987Z,15.55
2017-09-26T22:19:52.250Z,15.67
2017-09-26T22:22:18.451Z,15.67
2017-09-26T22:24:44.709Z,15.56
2017-09-26T22:27:10.911Z,15.54
2017-09-26T22:29:37.169Z,15.58
2017-09-26T22:32:03.399Z,15.60
2017-09-26T22:34:29.630Z,15.56
2017-09-26T22:36:55.814Z,15.49
2017-09-26T22:39:22.077Z,15.46
2017-09-26T22:41:48.316Z,15.46
2017-09-26T22:44:14.542Z,15.43
2017-09-26T22:46:40.768Z,15.37
2017-09-26T22:49:06.974Z,15.44
2017-09-26T22:51:33.235Z,15.41
2017-09-26T22:53:59.430Z,15.37
2017-09-26T22:56:25.685Z,15.36
2017-09-26T22:58:51.931Z,15.32
2017-09-26T23:01:18.169Z,15.25
2017-09-26T23:03:44.396Z,15.27
2017-09-26T23:06:10.601Z,15.34
2017-09-26T23:08:36.822Z,15.21
2017-09-26T23:11:03.052Z,15.27
2017-09-26T23:13:29.301Z,15.27
2017-09-26T23:15:55.518Z,15.33
2017-09-26T23:18:21.727Z,15.35
2017-09-26T23:20:48.055Z,15.32
2017-09-26T23:23:14.320Z,15.20
2017-09-26T23:25:40.561Z,15.26
2017-09-26T23:28:06.769Z,15.26
2017-09-26T23:30:33.016Z,15.18
2017-09-26T23:32:59.233Z,15.24
2017-09-26T23:37:56.794Z,15.31
2017-09-26T23:40:23.045Z,15.28
2017-09-26T23:42:49.286Z,15.28
2017-09-26T23:45:15.525Z,15.27
2017-09-26T23:47:41.737Z,15.17
2017-09-26T23:50:07.974Z,15.12
2017-09-26T23:52:34.200Z,15.23
2017-09-26T23:55:00.424Z,15.25
2017-09-26T23:57:26.639Z,15.27
2017-09-26T23:59:52.876Z,15.21
